This is the latest recevied weather packets stored in our database for station/object LZ0VRC-10. If no packets are shown the sender has not sent any weather packets the latest 10 day(s).
| Time | Temp. | Humidity | Pressure | Rain* | Wind** | Luminosity | Snow |
|---|---|---|---|---|---|---|---|
| 1777645537 | 13.33° C | 41% | 1025.6 hPa | - | - | - | - |
| 1777644642 | 12.78° C | 40% | 1025.6 hPa | - | - | - | - |
| 1777644637 | 12.78° C | 40% | 1025.6 hPa | - | - | - | - |
| 1777643737 | 11.67° C | 39% | 1025.7 hPa | - | - | - | - |
| 1777642837 | 12.78° C | 37% | 1025.7 hPa | - | - | - | - |
| 1777641942 | 16.11° C | 31% | 1025.8 hPa | - | - | - | - |
| 1777641938 | 16.11° C | 31% | 1025.8 hPa | - | - | - | - |
| 1777641042 | 15.56° C | 33% | 1025.8 hPa | - | - | - | - |
| 1777641037 | 15.56° C | 33% | 1025.8 hPa | - | - | - | - |
| 1777640142 | 10.56° C | 42% | 1026 hPa | - | - | - | - |
| 1777640137 | 10.56° C | 42% | 1026 hPa | - | - | - | - |
| 1777639242 | 12.78° C | 39% | 1026.1 hPa | - | - | - | - |
| 1777639238 | 12.78° C | 39% | 1026.1 hPa | - | - | - | - |
| 1777638342 | 11.67° C | 43% | 1026.3 hPa | - | - | - | - |
| 1777638338 | 11.67° C | 43% | 1026.3 hPa | - | - | - | - |
| 1777637438 | 15° C | 38% | 1026.3 hPa | - | - | - | - |
| 1777636543 | 11.67° C | 41% | 1026.6 hPa | - | - | - | - |
| 1777636538 | 11.67° C | 41% | 1026.6 hPa | - | - | - | - |
| 1777635642 | 12.78° C | 40% | 1026.6 hPa | - | - | - | - |
| 1777635638 | 12.78° C | 40% | 1026.6 hPa | - | - | - | - |
| 1777634738 | 12.22° C | 45% | 1026.7 hPa | - | - | - | - |
| 1777633838 | 12.22° C | 47% | 1026.9 hPa | - | - | - | - |
| 1777632943 | 18.33° C | 33% | 1026.8 hPa | - | - | - | - |
| 1777632938 | 18.33° C | 33% | 1026.8 hPa | - | - | - | - |
| 1777632043 | 18.89° C | 33% | 1026.9 hPa | - | - | - | - |
* Rain since midnight (hover to see other rain measurements)
** Current wind speed in m/s (hover to see current wind gust speed)